21:58
Airports
History
Links
Donate
Help keep this website running!
PayPal
Bitcoin
This page is community maintained. The information is intended for PC simulator navigation or reference.
Always use approved charts for navigation.
EDLK
Krefeld Egelsberg
Krefeld Egelsberg (EDLK)
Krefeld, Nordrhein-Westfalen, Germany (47802)
(C)
Lat/Lng:51° 23' 10" N / 6° 35' 26" E
51.386111 / 6.590556
Elevation:125'ft / 38mMSL
ID / ICAO:EDLK
Runways:1
Longest:06-24
Grass 644m / 2,112ft
Controlled:Yes
Nearby Weather21:50 GMT 2017-10-16
Nearby weather at EDDL, Duesseldorf located 10.2 nautical miles from EDLK
Altimeter: 30.15
Visibility: 6.2 statute miles
Wind: 12 knots (from 150°)
Temp: 18°c / 64°f
Humidity: 72.6%

METAR: EDDL 162150Z 15012KT CAVOK 18/13 Q1021 NOSIG

(Powered by phpweather)
Airport Radio Frequencies
Tower: 122.85
Nearby VORs <50NM
Nearby NDBs
Runway 06 / 24
Dimensions:643.7 x 29.9m 2112' x 98'ft
Surface:Grass
Edge Lights:Medium intensity
Runway 06 [A]Runway 24 [B]
Heading:062°TH 242°TH
Lat:
Lng:
51° 23' 5.13"N
6° 35' 11.33"E
51° 23' 14.87"N
6° 35' 40.67"E
User Notes and Comments
51° 23' 10" N / 6° 35' 26" E
Distance To
Airport ID:
Nearby Airports
(C) Duesseldorf 10.2 NM
EDDL ( WX ) SE 131°
(C) Monchengladbach 11.4 NM
EDLN ( WX ) SSW 199°
(U) Essen Mulheim 15.1 NM
EDLE E 85°
(C) Dinslaken Schwarze Heide 19.8 NM
EDLD NE 36°
(C) NIEDERRHEIN 24.4 NM
EDLV NW 307°
(C) Marl Loemuehle 30.6 NM
EDLM NE 53°
(C) De Peel 32.8 NM
EHDP WNW 285°
VFR Chart
Flight Planning at SkyVector.com